createdAt,value
2023-03-11T00:01:14.347Z,99783.09
2023-03-11T00:03:41.952Z,99782.09
2023-03-11T00:06:11.568Z,99792.94
2023-03-11T00:08:39.137Z,99799.94
2023-03-11T00:11:06.704Z,99795.63
2023-03-11T00:13:37.804Z,99792.47
2023-03-11T00:16:06.557Z,99799.75
2023-03-11T00:18:35.611Z,99801.53
2023-03-11T00:21:03.210Z,99806.78
2023-03-11T00:23:32.148Z,99820.59
2023-03-11T00:26:02.963Z,99813.56
2023-03-11T00:28:34.162Z,99816.28
2023-03-11T00:31:05.547Z,99815.34
2023-03-11T00:33:33.126Z,99834.50
2023-03-11T00:36:02.388Z,99835.47
2023-03-11T00:38:30.247Z,99846.03
2023-03-11T00:40:57.818Z,99851.16
2023-03-11T00:43:25.502Z,99862.41
2023-03-11T00:45:53.172Z,99856.41
2023-03-11T00:48:22.133Z,99856.13
2023-03-11T00:50:50.407Z,99852.38
2023-03-11T00:53:19.248Z,99856.00
2023-03-11T00:55:46.848Z,99864.81
2023-03-11T00:58:14.764Z,99869.59
2023-03-11T01:00:47.461Z,99875.66
2023-03-11T01:03:16.843Z,99869.75
2023-03-11T01:05:47.590Z,99869.22
2023-03-11T01:08:15.968Z,99869.03
2023-03-11T01:10:43.521Z,99870.69
2023-03-11T01:13:12.202Z,99876.69
2023-03-11T01:15:39.933Z,99886.97
2023-03-11T01:18:07.809Z,99879.94
2023-03-11T01:20:37.505Z,99879.09
2023-03-11T01:23:08.343Z,99881.63
2023-03-11T01:25:38.427Z,99878.94
2023-03-11T01:28:10.311Z,99889.19
2023-03-11T01:30:40.549Z,99888.56
2023-03-11T01:33:09.780Z,99899.94
2023-03-11T01:35:39.992Z,99907.72
2023-03-11T01:38:09.354Z,99912.13
2023-03-11T01:40:41.698Z,99913.03
2023-03-11T01:43:40.844Z,99926.97
2023-03-11T01:46:21.005Z,99926.88
2023-03-11T01:48:50.584Z,99932.28
2023-03-11T01:51:22.378Z,99924.28
2023-03-11T01:53:52.230Z,99924.28
2023-03-11T01:56:20.643Z,99935.47
2023-03-11T01:58:52.348Z,99926.88
2023-03-11T02:01:21.733Z,99933.59
2023-03-11T02:03:49.689Z,99936.59
2023-03-11T02:06:19.992Z,99939.13
2023-03-11T02:08:48.802Z,99939.78
2023-03-11T02:11:21.977Z,99939.19
2023-03-11T02:13:50.561Z,99936.31
2023-03-11T02:16:19.947Z,99937.34
2023-03-11T02:18:48.007Z,99948.75
2023-03-11T02:21:24.470Z,99949.66
2023-03-11T02:24:00.756Z,99953.44
2023-03-11T02:26:36.374Z,99955.00
2023-03-11T02:29:08.592Z,99953.44
2023-03-11T02:31:41.157Z,99944.81
2023-03-11T02:34:18.377Z,99936.22
2023-03-11T02:36:47.335Z,99947.53
2023-03-11T02:39:15.710Z,99957.06
2023-03-11T02:41:47.442Z,99953.50
2023-03-11T02:44:17.637Z,99960.25
2023-03-11T02:46:49.280Z,99962.19
2023-03-11T02:49:19.685Z,99962.75
2023-03-11T02:51:47.250Z,99961.19
2023-03-11T02:54:15.216Z,99957.63
2023-03-11T02:56:43.461Z,99964.63
2023-03-11T02:59:11.005Z,99966.41
2023-03-11T03:01:40.075Z,99968.09
2023-03-11T03:04:07.991Z,99969.03
2023-03-11T03:06:35.909Z,99970.63
2023-03-11T03:09:03.811Z,99970.63
2023-03-11T03:11:31.569Z,99975.00
2023-03-11T03:13:59.711Z,99988.19
2023-03-11T03:16:28.506Z,99990.91
2023-03-11T03:18:58.004Z,99997.00
2023-03-11T03:21:27.352Z,100001.38
2023-03-11T03:23:56.128Z,100002.38
2023-03-11T03:26:23.826Z,100004.25
2023-03-11T03:28:52.807Z,99999.19
2023-03-11T03:31:21.110Z,100002.69
2023-03-11T03:33:48.935Z,100014.25
2023-03-11T03:36:19.220Z,100014.06
2023-03-11T03:47:16.686Z,100026.09
2023-03-11T03:49:50.400Z,100030.22
2023-03-11T03:52:19.621Z,100026.56
2023-03-11T03:54:47.321Z,100039.84
2023-03-11T03:57:15.299Z,100039.84
2023-03-11T03:59:46.503Z,100038.06
2023-03-11T04:02:14.719Z,100054.69
2023-03-11T04:04:43.160Z,100052.09
2023-03-11T04:07:15.365Z,100052.09
2023-03-11T04:09:46.334Z,100052.94
2023-03-11T04:12:17.369Z,100051.16
2023-03-11T04:15:11.102Z,100057.22
2023-03-11T04:17:39.806Z,100058.91
2023-03-11T04:20:11.346Z,100060.59
2023-03-11T04:22:39.790Z,100056.22
2023-03-11T04:25:09.608Z,100072.81
2023-03-11T04:27:38.652Z,100073.66
2023-03-11T04:30:08.593Z,100077.16
2023-03-11T04:32:36.541Z,100080.69
2023-03-11T04:35:06.125Z,100082.38
2023-03-11T04:37:34.655Z,100091.97
2023-03-11T04:40:03.473Z,100085.75
2023-03-11T04:42:33.376Z,100089.47
2023-03-11T04:45:01.712Z,100087.69
2023-03-11T04:47:31.335Z,100093.75
2023-03-11T04:49:59.480Z,100096.47
2023-03-11T04:52:27.081Z,100098.25
2023-03-11T04:54:54.979Z,100104.50
2023-03-11T04:57:24.706Z,100109.66
2023-03-11T05:00:25.411Z,100119.19
2023-03-11T05:03:03.981Z,100117.50
2023-03-11T05:05:34.388Z,100115.72
2023-03-11T05:08:03.319Z,100129.56
2023-03-11T05:10:32.883Z,100131.34
2023-03-11T05:13:04.441Z,100133.19
2023-03-11T05:15:41.701Z,100143.75
2023-03-11T05:18:09.457Z,100129.75
2023-03-11T05:20:39.203Z,100134.97
2023-03-11T05:23:07.842Z,100134.88
2023-03-11T05:25:37.220Z,100139.19
2023-03-11T05:28:05.940Z,100144.50
2023-03-11T05:30:36.951Z,100146.28
2023-03-11T05:33:06.172Z,100141.22
2023-03-11T05:35:35.751Z,100147.38
2023-03-11T05:38:04.340Z,100150.94
2023-03-11T05:40:31.827Z,100157.09
2023-03-11T05:42:59.958Z,100151.03
2023-03-11T05:45:30.738Z,100158.97
2023-03-11T05:48:00.623Z,100153.88
2023-03-11T05:50:32.347Z,100161.75
2023-03-11T05:53:00.848Z,100170.69
2023-03-11T05:55:31.379Z,100165.44
2023-03-11T05:58:00.382Z,100166.47
2023-03-11T06:00:29.345Z,100175.31
2023-03-11T06:02:59.217Z,100178.88
2023-03-11T06:05:27.452Z,100180.72
2023-03-11T06:07:59.427Z,100182.59
2023-03-11T06:10:28.330Z,100187.03
2023-03-11T06:12:56.767Z,100182.84
2023-03-11T06:15:27.699Z,100189.75
2023-03-11T06:17:55.387Z,100195.13
2023-03-11T06:20:23.694Z,100187.47
2023-03-11T06:22:52.094Z,100192.69
2023-03-11T06:25:25.152Z,100188.41
2023-03-11T06:27:54.598Z,100206.72
2023-03-11T06:30:25.266Z,100200.78
2023-03-11T06:33:00.476Z,100203.41
2023-03-11T06:35:29.068Z,100212.94
2023-03-11T06:37:56.621Z,100223.47
2023-03-11T06:40:25.503Z,100219.34
2023-03-11T06:42:53.227Z,100216.81
2023-03-11T06:45:23.360Z,100225.44
2023-03-11T06:47:52.406Z,100236.78
2023-03-11T06:50:23.595Z,100232.41
2023-03-11T06:52:51.880Z,100230.66
2023-03-11T06:55:21.360Z,100239.41
2023-03-11T06:57:50.357Z,100234.03
2023-03-11T07:00:18.313Z,100244.72
2023-03-11T07:02:51.448Z,100249.97
2023-03-11T07:05:23.326Z,100248.09
2023-03-11T07:08:00.339Z,100257.66
2023-03-11T07:10:28.065Z,100264.56
2023-03-11T07:12:56.972Z,100266.16
2023-03-11T07:15:26.407Z,100273.06
2023-03-11T07:17:54.207Z,100278.31
2023-03-11T07:20:22.577Z,100280.88
2023-03-11T07:22:50.675Z,100282.56
2023-03-11T07:25:18.450Z,100289.47
2023-03-11T07:27:46.068Z,100293.63
2023-03-11T07:30:15.889Z,100302.81
2023-03-11T07:32:43.521Z,100314.72
2023-03-11T07:35:11.080Z,100314.22
2023-03-11T07:37:38.600Z,100316.50
2023-03-11T07:40:07.256Z,100318.91
2023-03-11T07:42:35.351Z,100318.97
2023-03-11T07:45:04.401Z,100323.13
2023-03-11T07:47:35.124Z,100328.88
2023-03-11T07:50:02.653Z,100332.84
2023-03-11T07:52:33.329Z,100337.00
2023-03-11T07:55:03.418Z,100335.81
2023-03-11T07:57:30.943Z,100341.47
2023-03-11T07:59:58.460Z,100350.03
2023-03-11T08:02:26.382Z,100345.34
2023-03-11T08:04:57.144Z,100351.63
2023-03-11T08:07:24.878Z,100353.06
2023-03-11T08:09:52.861Z,100355.06
2023-03-11T08:12:21.346Z,100358.16
2023-03-11T08:14:49.345Z,100356.91
2023-03-11T08:17:19.659Z,100364.50
2023-03-11T08:19:47.221Z,100368.88
2023-03-11T08:22:16.049Z,100366.38
2023-03-11T08:24:43.645Z,100374.81
2023-03-11T08:27:12.231Z,100375.16
2023-03-11T08:29:43.798Z,100377.22
2023-03-11T08:32:12.420Z,100374.00
2023-03-11T08:34:39.946Z,100386.75
2023-03-11T08:37:08.395Z,100387.34
2023-03-11T08:39:37.224Z,100393.63
2023-03-11T08:42:05.310Z,100395.06
2023-03-11T08:44:32.812Z,100390.50
2023-03-11T08:47:02.542Z,100393.25
2023-03-11T08:49:30.064Z,100397.28
2023-03-11T08:51:57.816Z,100392.03
2023-03-11T08:54:27.341Z,100396.69
2023-03-11T08:56:56.327Z,100393.72
2023-03-11T08:59:23.811Z,100407.41
2023-03-11T09:01:51.827Z,100400.94
2023-03-11T09:04:20.886Z,100406.28
2023-03-11T09:06:49.699Z,100403.50
2023-03-11T09:09:20.236Z,100411.34
2023-03-11T09:11:48.392Z,100402.34
2023-03-11T09:14:17.508Z,100404.41
2023-03-11T09:16:46.437Z,100396.34
2023-03-11T09:19:13.940Z,100398.22
2023-03-11T09:21:41.507Z,100398.41
2023-03-11T09:24:09.186Z,100405.63
2023-03-11T09:26:36.702Z,100400.84
2023-03-11T09:29:04.226Z,100408.00
2023-03-11T09:31:33.613Z,100418.50
2023-03-11T09:34:02.702Z,100407.50
2023-03-11T09:36:30.406Z,100410.38
2023-03-11T09:38:57.909Z,100410.22
2023-03-11T09:41:44.943Z,100408.72
2023-03-11T09:44:25.401Z,100415.53
2023-03-11T09:47:37.425Z,100412.06
2023-03-11T09:50:16.649Z,100412.00
2023-03-11T09:52:51.512Z,100412.38
2023-03-11T09:55:34.117Z,100418.66
2023-03-11T09:58:05.841Z,100419.53
2023-03-11T10:00:34.206Z,100426.81
2023-03-11T10:03:04.220Z,100438.28
2023-03-11T10:05:33.088Z,100436.97
2023-03-11T10:08:04.781Z,100446.44
2023-03-11T10:10:40.594Z,100446.63
2023-03-11T10:13:16.005Z,100447.38
2023-03-11T10:15:53.382Z,100454.59
2023-03-11T10:18:39.347Z,100455.44
2023-03-11T10:21:17.388Z,100452.16
2023-03-11T10:24:20.503Z,100461.44
2023-03-11T10:26:52.690Z,100454.59
2023-03-11T10:29:27.468Z,100461.00
2023-03-11T10:32:01.024Z,100465.09
2023-03-11T10:34:38.372Z,100464.25
2023-03-11T10:37:12.693Z,100460.69
2023-03-11T10:39:41.697Z,100461.34
2023-03-11T10:42:14.212Z,100452.41
2023-03-11T10:44:43.478Z,100454.22
2023-03-11T10:47:17.754Z,100465.28
2023-03-11T10:49:47.365Z,100464.25
2023-03-11T10:52:14.921Z,100465.38
2023-03-11T10:54:46.264Z,100468.00
2023-03-11T10:57:26.372Z,100472.50
2023-03-11T10:59:55.591Z,100470.63
2023-03-11T11:02:27.362Z,100477.09
2023-03-11T11:05:28.390Z,100474.75
2023-03-11T11:08:05.118Z,100479.25
2023-03-11T11:10:34.045Z,100469.56
2023-03-11T11:13:03.976Z,100472.88
2023-03-11T11:15:34.355Z,100472.47
2023-03-11T11:18:05.354Z,100469.84
2023-03-11T11:20:35.252Z,100474.16
2023-03-11T11:23:04.775Z,100472.38
2023-03-11T11:25:35.408Z,100469.84
2023-03-11T11:28:05.687Z,100473.22
2023-03-11T11:30:33.238Z,100462.41
2023-03-11T11:33:24.075Z,100471.16
2023-03-11T11:35:58.059Z,100464.88
2023-03-11T11:38:28.222Z,100466.34
2023-03-11T11:40:57.597Z,100460.06
2023-03-11T11:43:35.378Z,100462.59
2023-03-11T11:46:06.780Z,100460.50
2023-03-11T11:48:42.349Z,100458.44
2023-03-11T11:51:18.399Z,100453.78
2023-03-11T11:53:52.745Z,100444.66
2023-03-11T11:56:46.384Z,100452.22
2023-03-11T11:59:18.773Z,100450.88
2023-03-11T12:01:59.064Z,100451.81
2023-03-11T12:04:41.764Z,100443.09
2023-03-11T12:07:23.396Z,100446.56
2023-03-11T12:10:24.402Z,100441.91
2023-03-11T12:13:19.727Z,100447.09
2023-03-11T12:15:54.431Z,100446.06
2023-03-11T12:18:29.245Z,100442.56
2023-03-11T12:20:57.363Z,100450.06
2023-03-11T12:23:38.488Z,100449.78
2023-03-11T12:26:16.195Z,100446.31
2023-03-11T12:28:49.020Z,100448.00
2023-03-11T12:34:13.468Z,100447.88
2023-03-11T12:36:44.481Z,100438.84
2023-03-11T12:39:24.843Z,100446.44
2023-03-11T12:42:17.277Z,100448.84
2023-03-11T12:44:45.998Z,100459.09
2023-03-11T12:47:33.354Z,100461.19
2023-03-11T12:50:39.462Z,100478.38
2023-03-11T12:53:07.043Z,100469.47
2023-03-11T12:55:39.446Z,100473.97
2023-03-11T12:58:51.827Z,100478.41
2023-03-11T13:01:46.118Z,100477.13
2023-03-11T13:04:24.349Z,100480.06
2023-03-11T13:07:29.680Z,100480.91
2023-03-11T13:10:04.328Z,100481.75
2023-03-11T13:12:43.274Z,100482.28
2023-03-11T13:15:35.517Z,100479.47
2023-03-11T13:18:05.133Z,100475.78
2023-03-11T13:20:44.942Z,100479.34
2023-03-11T13:23:23.923Z,100478.31
2023-03-11T13:29:42.169Z,100480.75
2023-03-11T13:32:31.412Z,100475.38
2023-03-11T13:35:12.976Z,100475.91
2023-03-11T13:37:51.363Z,100476.56
2023-03-11T13:40:33.337Z,100476.97
2023-03-11T13:43:04.253Z,100475.28
2023-03-11T13:45:36.465Z,100476.03
2023-03-11T13:48:06.933Z,100481.63
2023-03-11T13:50:38.332Z,100483.91
2023-03-11T13:53:11.223Z,100483.41
2023-03-11T13:55:42.026Z,100477.50
2023-03-11T13:58:16.450Z,100471.34
2023-03-11T14:00:51.106Z,100461.00
2023-03-11T14:03:22.206Z,100473.53
2023-03-11T14:05:56.631Z,100472.78
2023-03-11T14:08:27.220Z,100469.94
2023-03-11T14:10:57.375Z,100478.00
2023-03-11T14:13:27.339Z,100473.56
2023-03-11T14:16:01.588Z,100478.53
2023-03-11T14:18:35.418Z,100475.69
2023-03-11T14:21:04.731Z,100479.66
2023-03-11T14:23:36.434Z,100481.94
2023-03-11T14:26:09.413Z,100480.34
2023-03-11T14:28:43.588Z,100471.13
2023-03-11T14:31:25.464Z,100487.22
2023-03-11T14:33:57.534Z,100489.09
2023-03-11T14:36:25.233Z,100489.09
2023-03-11T14:38:53.670Z,100498.94
2023-03-11T14:41:21.280Z,100484.19
2023-03-11T14:43:53.004Z,100495.78
2023-03-11T14:46:27.439Z,100494.09
2023-03-11T14:48:56.366Z,100500.53
2023-03-11T14:51:32.349Z,100495.50
2023-03-11T14:54:09.331Z,100490.84
2023-03-11T14:56:41.236Z,100494.66
2023-03-11T14:59:17.057Z,100492.13
2023-03-11T15:01:48.258Z,100496.91
2023-03-11T15:04:31.365Z,100498.34
2023-03-11T15:06:59.474Z,100496.91
2023-03-11T15:09:30.399Z,100501.31
2023-03-11T15:11:59.534Z,100504.06
2023-03-11T15:14:28.770Z,100496.28
2023-03-11T15:17:33.032Z,100506.31
2023-03-11T15:20:01.730Z,100502.19
2023-03-11T15:22:32.543Z,100500.63
2023-03-11T15:25:02.147Z,100507.69
2023-03-11T15:27:32.602Z,100505.19
2023-03-11T15:30:06.311Z,100498.19
2023-03-11T15:32:43.329Z,100507.50
2023-03-11T15:35:17.865Z,100506.13
2023-03-11T15:37:47.516Z,100509.41
2023-03-11T15:40:26.125Z,100505.09
2023-03-11T15:43:25.833Z,100506.06
2023-03-11T15:45:56.386Z,100506.13
2023-03-11T15:48:27.751Z,100509.72
2023-03-11T15:51:00.225Z,100510.16
2023-03-11T15:53:29.409Z,100512.91
2023-03-11T15:56:06.975Z,100512.50
2023-03-11T15:58:38.549Z,100506.69
2023-03-11T16:01:06.461Z,100512.28
2023-03-11T16:03:35.529Z,100514.50
2023-03-11T16:06:03.047Z,100516.72
2023-03-11T16:08:30.772Z,100513.44
2023-03-11T16:10:58.908Z,100511.88
2023-03-11T16:13:26.677Z,100512.50
2023-03-11T16:15:54.518Z,100516.38
2023-03-11T16:18:22.087Z,100523.75
2023-03-11T16:20:53.360Z,100523.31
2023-03-11T16:23:23.703Z,100516.38
2023-03-11T16:25:55.393Z,100516.25
2023-03-11T16:28:22.933Z,100523.41
2023-03-11T16:30:51.269Z,100522.97
2023-03-11T16:33:19.792Z,100520.47
2023-03-11T16:35:53.421Z,100519.06
2023-03-11T16:38:23.116Z,100512.50
2023-03-11T16:40:57.344Z,100511.88
2023-03-11T16:43:25.336Z,100515.66
2023-03-11T16:45:54.682Z,100528.06
2023-03-11T16:48:23.429Z,100524.06
2023-03-11T16:50:52.351Z,100525.28
2023-03-11T16:53:19.910Z,100535.09
2023-03-11T16:55:50.893Z,100525.81
2023-03-11T16:58:18.416Z,100535.78
2023-03-11T17:00:46.615Z,100537.75
2023-03-11T17:03:14.691Z,100532.78
2023-03-11T17:05:42.671Z,100533.81
2023-03-11T17:08:14.344Z,100538.53
2023-03-11T17:10:44.383Z,100541.44
2023-03-11T17:13:13.717Z,100539.13
2023-03-11T17:15:44.262Z,100544.66
2023-03-11T17:18:13.381Z,100544.22
2023-03-11T17:20:43.339Z,100550.69
2023-03-11T17:23:11.209Z,100551.81
2023-03-11T17:25:42.481Z,100545.44
2023-03-11T17:28:10.461Z,100552.97
2023-03-11T17:30:43.068Z,100556.97
2023-03-11T17:33:11.414Z,100555.66
2023-03-11T17:35:39.070Z,100553.50
2023-03-11T17:38:06.575Z,100559.13
2023-03-11T17:40:34.361Z,100560.44
2023-03-11T17:43:03.255Z,100556.41
2023-03-11T17:45:30.823Z,100567.28
2023-03-11T17:47:58.394Z,100570.31
2023-03-11T17:50:27.000Z,100566.47
2023-03-11T17:52:56.395Z,100570.28
2023-03-11T17:55:24.408Z,100576.75
2023-03-11T17:57:53.163Z,100573.72
2023-03-11T18:00:23.289Z,100581.19
2023-03-11T18:02:51.926Z,100579.75
2023-03-11T18:05:19.842Z,100583.56
2023-03-11T18:07:47.594Z,100585.69
2023-03-11T18:10:16.250Z,100585.19
2023-03-11T18:12:45.297Z,100590.97
2023-03-11T18:15:18.672Z,100584.34
2023-03-11T18:17:48.146Z,100593.44
2023-03-11T18:20:16.243Z,100589.28
2023-03-11T18:22:46.779Z,100595.69
2023-03-11T18:25:14.874Z,100591.63
2023-03-11T18:27:42.415Z,100580.63
2023-03-11T18:30:11.673Z,100587.91
2023-03-11T18:32:39.262Z,100593.47
2023-03-11T18:35:09.446Z,100592.03
2023-03-11T18:37:37.940Z,100599.28
2023-03-11T18:40:07.699Z,100596.06
2023-03-11T18:42:35.337Z,100600.69
2023-03-11T18:45:03.913Z,100604.47
2023-03-11T18:47:35.794Z,100595.19
2023-03-11T18:50:03.313Z,100604.34
2023-03-11T18:52:32.208Z,100602.81
2023-03-11T18:54:59.791Z,100599.66
2023-03-11T18:57:27.471Z,100607.75
2023-03-11T18:59:55.337Z,100600.16
2023-03-11T19:02:22.881Z,100595.97
2023-03-11T19:04:50.818Z,100590.03
2023-03-11T19:07:19.351Z,100595.44
2023-03-11T19:09:51.428Z,100588.66
2023-03-11T19:12:18.968Z,100597.63
2023-03-11T19:14:46.526Z,100596.16
2023-03-11T19:17:16.394Z,100602.38
2023-03-11T19:19:43.911Z,100595.59
2023-03-11T19:22:11.464Z,100596.59
2023-03-11T19:24:39.057Z,100613.38
2023-03-11T19:27:07.960Z,100609.22
2023-03-11T19:29:35.707Z,100607.69
2023-03-11T19:32:03.869Z,100606.06
2023-03-11T19:34:31.828Z,100607.97
2023-03-11T19:36:59.477Z,100611.53
2023-03-11T19:39:27.813Z,100612.50
2023-03-11T19:41:56.760Z,100608.28
2023-03-11T19:44:26.619Z,100614.56
2023-03-11T19:46:54.147Z,100612.13
2023-03-11T19:49:21.891Z,100614.78
2023-03-11T19:51:52.885Z,100617.47
2023-03-11T19:54:20.659Z,100617.66
2023-03-11T19:56:48.770Z,100618.69
2023-03-11T19:59:16.987Z,100615.31
2023-03-11T20:01:45.925Z,100618.84
2023-03-11T20:04:14.944Z,100618.06
2023-03-11T20:06:43.529Z,100627.69
2023-03-11T20:09:11.534Z,100622.53
2023-03-11T20:11:41.380Z,100627.91
2023-03-11T20:14:09.991Z,100627.22
2023-03-11T20:16:37.572Z,100627.25
2023-03-11T20:19:07.448Z,100620.34
2023-03-11T20:21:39.242Z,100610.81
2023-03-11T20:24:07.437Z,100619.56
2023-03-11T20:26:35.071Z,100617.88
2023-03-11T20:29:03.456Z,100625.72
2023-03-11T20:31:31.393Z,100624.94
2023-03-11T20:33:59.947Z,100619.78
2023-03-11T20:36:30.594Z,100617.16
2023-03-11T20:38:58.423Z,100624.25
2023-03-11T20:41:27.579Z,100625.16
2023-03-11T20:43:57.559Z,100624.25
2023-03-11T20:46:25.545Z,100626.00
2023-03-11T20:48:53.334Z,100623.41
2023-03-11T20:51:23.055Z,100625.09
2023-03-11T20:53:54.388Z,100622.47
2023-03-11T20:56:24.448Z,100625.16
2023-03-11T20:58:52.735Z,100619.94
2023-03-11T21:01:23.763Z,100621.63
2023-03-11T21:03:54.231Z,100622.56
2023-03-11T21:06:24.047Z,100631.25
2023-03-11T21:08:55.003Z,100622.56
2023-03-11T21:11:24.400Z,100623.53
2023-03-11T21:13:52.037Z,100623.44
2023-03-11T21:16:19.792Z,100630.41
2023-03-11T21:18:49.539Z,100627.78
2023-03-11T21:21:18.593Z,100628.69
2023-03-11T21:23:47.193Z,100633.97
2023-03-11T21:26:17.272Z,100628.75
2023-03-11T21:28:46.398Z,100621.00
2023-03-11T21:31:16.575Z,100614.13
2023-03-11T21:33:45.037Z,100617.81
2023-03-11T21:36:14.498Z,100625.78
2023-03-11T21:38:43.872Z,100618.78
2023-03-11T21:41:14.441Z,100617.94
2023-03-11T21:43:44.189Z,100622.47
2023-03-11T21:46:14.304Z,100620.06
2023-03-11T21:48:43.438Z,100622.81
2023-03-11T21:51:11.105Z,100623.88
2023-03-11T21:53:39.202Z,100617.94
2023-03-11T21:56:07.821Z,100618.13
2023-03-11T21:58:35.778Z,100616.53
2023-03-11T22:01:05.001Z,100615.75
2023-03-11T22:03:35.357Z,100623.59
2023-03-11T22:06:05.208Z,100621.84
2023-03-11T22:08:33.357Z,100611.44
2023-03-11T22:11:01.559Z,100619.25
2023-03-11T22:13:29.221Z,100623.72
2023-03-11T22:15:57.426Z,100627.19
2023-03-11T22:18:26.354Z,100623.78
2023-03-11T22:20:54.800Z,100630.78
2023-03-11T22:23:22.815Z,100629.09
2023-03-11T22:25:50.372Z,100629.09
2023-03-11T22:28:18.447Z,100624.75
2023-03-11T22:30:46.033Z,100622.22
2023-03-11T22:33:14.408Z,100623.16
2023-03-11T22:35:50.488Z,100628.44
2023-03-11T22:38:18.082Z,100633.72
2023-03-11T22:40:45.627Z,100631.09
2023-03-11T22:43:14.355Z,100632.03
2023-03-11T22:45:42.049Z,100629.50
2023-03-11T22:48:09.636Z,100632.09
2023-03-11T22:50:40.738Z,100632.88
2023-03-11T22:53:09.676Z,100631.09
2023-03-11T22:55:39.729Z,100635.44
2023-03-11T22:58:08.409Z,100638.91
2023-03-11T23:00:36.681Z,100638.06
2023-03-11T23:03:05.391Z,100636.97
2023-03-11T23:05:40.545Z,100639.66
2023-03-11T23:08:11.835Z,100648.34
2023-03-11T23:10:40.931Z,100646.38
2023-03-11T23:13:09.391Z,100642.28
2023-03-11T23:15:41.510Z,100643.28
2023-03-11T23:18:09.978Z,100644.25
2023-03-11T23:20:38.622Z,100635.56
2023-03-11T23:23:06.923Z,100633.72
2023-03-11T23:25:36.943Z,100639.81
2023-03-11T23:28:06.620Z,100646.66
2023-03-11T23:30:34.552Z,100642.28
2023-03-11T23:33:03.392Z,100637.06
2023-03-11T23:35:32.625Z,100638.91
2023-03-11T23:38:01.167Z,100637.06
2023-03-11T23:40:28.735Z,100641.50
2023-03-11T23:42:58.346Z,100642.28
2023-03-11T23:45:26.780Z,100636.13
2023-03-11T23:47:55.356Z,100641.38
2023-03-11T23:50:23.137Z,100643.97
2023-03-11T23:52:50.853Z,100643.06
2023-03-11T23:55:18.611Z,100643.00
2023-03-11T23:57:46.106Z,100641.25
